createdAt,value
2019-03-17T00:02:11.636Z,98172.75
2019-03-17T00:04:45.180Z,98159.50
2019-03-17T00:07:18.601Z,98165.11
2019-03-17T00:09:51.801Z,98146.20
2019-03-17T00:12:24.862Z,98167.36
2019-03-17T00:15:05.325Z,98139.25
2019-03-17T00:17:33.827Z,98136.98
2019-03-17T00:20:06.683Z,98148.14
2019-03-17T00:22:40.071Z,98142.83
2019-03-17T00:25:13.084Z,98143.24
2019-03-17T00:27:46.791Z,98130.41
2019-03-17T00:30:20.662Z,98135.09
2019-03-17T00:32:53.568Z,98130.82
2019-03-17T00:35:27.338Z,98120.52
2019-03-17T00:38:01.189Z,98113.16
2019-03-17T00:40:34.169Z,98110.11
2019-03-17T00:43:07.560Z,98116.91
2019-03-17T00:45:41.113Z,98118.46
2019-03-17T00:48:14.490Z,98103.48
2019-03-17T00:50:48.989Z,98104.52
2019-03-17T00:53:22.587Z,98100.20
2019-03-17T00:55:55.854Z,98103.07
2019-03-17T00:58:30.559Z,98084.47
2019-03-17T01:01:04.156Z,98082.66
2019-03-17T01:03:37.125Z,98075.72
2019-03-17T01:06:10.322Z,98067.36
2019-03-17T01:08:43.666Z,98069.08
2019-03-17T01:11:15.956Z,98068.88
2019-03-17T01:13:49.700Z,98068.55
2019-03-17T01:16:22.638Z,98068.02
2019-03-17T01:18:55.643Z,98065.27
2019-03-17T01:21:28.784Z,98055.34
2019-03-17T01:24:01.028Z,98051.80
2019-03-17T01:26:33.850Z,98036.41
2019-03-17T01:29:06.949Z,98039.47
2019-03-17T01:31:40.043Z,98048.22
2019-03-17T01:34:13.475Z,98036.66
2019-03-17T01:36:46.959Z,98055.17
2019-03-17T01:39:20.480Z,98028.09
2019-03-17T01:41:54.372Z,98024.42
2019-03-17T01:44:27.475Z,98017.05
2019-03-17T01:46:59.711Z,98019.86
2019-03-17T01:49:33.347Z,98015.56
2019-03-17T01:52:06.755Z,98008.97
2019-03-17T01:54:41.596Z,97988.09
2019-03-17T01:57:14.137Z,97976.34
2019-03-17T01:59:47.532Z,97998.88
2019-03-17T02:02:20.658Z,97969.58
2019-03-17T02:04:54.131Z,97979.78
2019-03-17T02:07:27.443Z,97968.58
2019-03-17T02:10:00.984Z,97982.82
2019-03-17T02:12:34.413Z,97981.87
2019-03-17T02:15:08.222Z,97975.91
2019-03-17T02:17:42.076Z,97960.16
2019-03-17T02:20:15.717Z,97972.81
2019-03-17T02:22:49.144Z,97973.81
2019-03-17T02:25:23.128Z,97969.81
2019-03-17T02:27:55.787Z,97976.56
2019-03-17T02:30:28.793Z,97972.86
2019-03-17T02:33:02.547Z,97970.20
2019-03-17T02:35:39.460Z,97971.10
2019-03-17T02:38:12.178Z,97960.65
2019-03-17T02:40:45.529Z,97973.50
2019-03-17T02:43:19.008Z,97972.94
2019-03-17T02:45:52.358Z,97950.27
2019-03-17T02:48:25.642Z,97955.69
2019-03-17T02:50:59.001Z,97959.19
2019-03-17T02:53:31.948Z,97946.97
2019-03-17T02:56:05.320Z,97944.42
2019-03-17T02:58:38.430Z,97930.00
2019-03-17T03:01:11.923Z,97928.95
2019-03-17T03:03:45.336Z,97944.62
2019-03-17T03:06:18.077Z,97915.38
2019-03-17T03:08:51.931Z,97910.36
2019-03-17T03:11:25.412Z,97915.42
2019-03-17T03:13:58.785Z,97913.66
2019-03-17T03:16:31.919Z,97908.80
2019-03-17T03:19:04.999Z,97895.38
2019-03-17T03:21:38.460Z,97893.19
2019-03-17T03:24:12.296Z,97890.94
2019-03-17T03:26:46.118Z,97903.73
2019-03-17T03:29:19.625Z,97902.80
2019-03-17T03:31:53.463Z,97881.70
2019-03-17T03:34:26.501Z,97886.04
2019-03-17T03:37:00.107Z,97881.97
2019-03-17T03:39:33.192Z,97879.93
2019-03-17T03:42:07.682Z,97862.95
2019-03-17T03:44:41.820Z,97865.09
2019-03-17T03:47:14.836Z,97874.11
2019-03-17T03:49:48.622Z,97871.88
2019-03-17T03:52:22.154Z,97871.47
2019-03-17T03:54:55.599Z,97849.95
2019-03-17T03:57:28.934Z,97875.84
2019-03-17T04:00:02.055Z,97855.38
2019-03-17T04:02:35.568Z,97857.68
2019-03-17T04:05:08.821Z,97863.25
2019-03-17T04:07:42.613Z,97853.92
2019-03-17T04:10:16.231Z,97851.05
2019-03-17T04:12:49.250Z,97844.20
2019-03-17T04:15:22.276Z,97842.80
2019-03-17T04:17:54.866Z,97858.89
2019-03-17T04:20:28.228Z,97836.37
2019-03-17T04:23:01.277Z,97853.03
2019-03-17T04:25:35.266Z,97869.95
2019-03-17T04:28:08.837Z,97873.45
2019-03-17T04:30:42.289Z,97846.77
2019-03-17T04:33:15.576Z,97863.95
2019-03-17T04:35:48.992Z,97865.09
2019-03-17T04:38:21.932Z,97861.97
2019-03-17T04:40:55.536Z,97859.45
2019-03-17T04:43:29.961Z,97842.22
2019-03-17T04:46:03.641Z,97857.45
2019-03-17T04:48:36.731Z,97870.29
2019-03-17T04:51:10.262Z,97850.89
2019-03-17T04:53:43.359Z,97859.37
2019-03-17T17:55:23.212Z,98741.93
2019-03-17T17:57:55.998Z,98749.48
2019-03-17T18:00:30.138Z,98759.07
2019-03-17T18:03:03.224Z,98765.12
2019-03-17T18:05:36.487Z,98772.84
2019-03-17T18:08:09.907Z,98778.81
2019-03-17T18:10:43.023Z,98770.72
2019-03-17T18:13:16.968Z,98776.80
2019-03-17T18:15:50.416Z,98785.81
2019-03-17T18:18:22.735Z,98784.55
2019-03-17T18:20:59.204Z,98787.66
2019-03-17T18:23:31.814Z,98788.35
2019-03-17T18:26:05.682Z,98791.12
2019-03-17T18:28:39.082Z,98792.05
2019-03-17T18:31:12.630Z,98795.05
2019-03-17T18:33:46.580Z,98802.28
2019-03-17T18:36:20.006Z,98805.77
2019-03-17T18:38:53.240Z,98808.73
2019-03-17T18:41:26.326Z,98812.84
2019-03-17T18:43:59.443Z,98815.97
2019-03-17T18:46:32.693Z,98821.92
2019-03-17T18:49:06.124Z,98820.58
2019-03-17T18:51:39.840Z,98823.70
2019-03-17T18:54:13.096Z,98839.02
2019-03-17T18:56:46.278Z,98839.94
2019-03-17T18:59:20.147Z,98844.47
2019-03-17T19:01:52.971Z,98841.06
2019-03-17T19:04:26.817Z,98845.84
2019-03-17T19:07:00.210Z,98854.69
2019-03-17T19:09:33.420Z,98859.30
2019-03-17T19:12:06.833Z,98859.30
2019-03-17T19:14:40.525Z,98860.03
2019-03-17T19:17:14.311Z,98856.55
2019-03-17T19:19:47.819Z,98863.14
2019-03-17T19:22:21.806Z,98866.55
2019-03-17T19:24:54.936Z,98868.47
2019-03-17T19:27:28.371Z,98875.14
2019-03-17T19:30:01.272Z,98883.94
2019-03-17T19:32:34.015Z,98884.06
2019-03-17T19:35:07.666Z,98884.28
2019-03-17T19:37:40.682Z,98894.34
2019-03-17T19:40:14.338Z,98886.20
2019-03-17T19:42:58.055Z,98895.60
2019-03-17T19:45:22.722Z,98898.86
2019-03-17T19:47:55.568Z,98903.61
2019-03-17T19:50:29.204Z,98908.34
2019-03-17T19:53:02.823Z,98912.06
2019-03-17T19:55:35.982Z,98911.91
2019-03-17T19:58:09.931Z,98918.64
2019-03-17T20:00:43.924Z,98923.43
2019-03-17T20:03:17.467Z,98925.53
2019-03-17T20:06:01.877Z,98927.47
2019-03-17T20:08:25.823Z,98930.48
2019-03-17T20:10:58.906Z,98926.36
2019-03-17T20:13:32.598Z,98930.04
2019-03-17T20:16:05.777Z,98932.65
2019-03-17T20:18:41.355Z,98935.41
2019-03-17T20:21:14.488Z,98939.78
2019-03-17T20:23:48.155Z,98943.48
2019-03-17T20:26:22.192Z,98941.25
2019-03-17T20:28:55.967Z,98942.52
2019-03-17T20:31:29.193Z,98942.43
2019-03-17T20:34:02.991Z,98949.91
2019-03-17T20:36:36.085Z,98953.95
2019-03-17T20:39:09.137Z,98956.52
2019-03-17T20:41:42.744Z,98952.50
2019-03-17T20:44:16.336Z,98966.84
2019-03-17T20:46:50.307Z,98963.53
2019-03-17T20:49:23.873Z,98979.73
2019-03-17T20:51:57.717Z,98972.23
2019-03-17T20:54:30.850Z,98983.46
2019-03-17T20:57:04.346Z,98987.41
2019-03-17T20:59:37.445Z,99000.67
2019-03-17T21:02:10.773Z,98999.38
2019-03-17T21:04:44.353Z,98999.59
2019-03-17T21:07:16.781Z,99003.05
2019-03-17T21:09:50.036Z,99004.16
2019-03-17T21:12:23.810Z,99012.14
2019-03-17T21:14:57.673Z,99014.53
2019-03-17T21:17:31.177Z,99009.50
2019-03-17T21:20:04.930Z,99008.44
2019-03-17T21:22:38.416Z,99010.11
2019-03-17T21:25:10.796Z,99016.72
2019-03-17T21:27:44.305Z,99020.89
2019-03-17T21:30:18.613Z,99020.45
2019-03-17T21:32:52.557Z,99024.03
2019-03-17T21:35:26.098Z,99033.84
2019-03-17T21:37:59.437Z,99023.20
2019-03-17T21:40:32.598Z,99039.72
2019-03-17T21:43:05.736Z,99034.70
2019-03-17T21:45:38.881Z,99041.23
2019-03-17T21:48:12.413Z,99039.23
2019-03-17T21:50:45.297Z,99040.02
2019-03-17T21:53:18.497Z,99047.54
2019-03-17T21:55:54.059Z,99047.64
2019-03-17T21:58:27.770Z,99045.50
2019-03-17T22:01:01.730Z,99045.30
2019-03-17T22:03:35.522Z,99050.35
2019-03-17T22:06:08.217Z,99044.91
2019-03-17T22:08:40.923Z,99050.95
2019-03-17T22:11:14.805Z,99050.30
2019-03-17T22:13:48.425Z,99054.63
2019-03-17T22:16:21.197Z,99042.78
2019-03-17T22:18:53.963Z,99050.06
2019-03-17T22:21:27.281Z,99051.89
2019-03-17T22:24:01.322Z,99071.06
2019-03-17T22:26:34.511Z,99063.45
2019-03-17T22:29:07.548Z,99070.62
2019-03-17T22:31:41.497Z,99067.82
2019-03-17T22:34:14.944Z,99068.95
2019-03-17T22:36:49.003Z,99080.60
2019-03-17T22:39:22.564Z,99080.39
2019-03-17T22:41:56.053Z,99077.70
2019-03-17T22:44:29.878Z,99077.69
2019-03-17T22:47:03.061Z,99080.39
2019-03-17T22:49:36.616Z,99077.03
2019-03-17T22:52:09.674Z,99078.59
2019-03-17T22:54:43.472Z,99088.67
2019-03-17T22:57:16.553Z,99095.83
2019-03-17T22:59:50.302Z,99098.18
2019-03-17T23:02:23.130Z,99092.58
2019-03-17T23:04:56.141Z,99098.88
2019-03-17T23:07:29.113Z,99094.03
2019-03-17T23:10:03.289Z,99088.77
2019-03-17T23:12:36.396Z,99081.59
2019-03-17T23:15:10.021Z,99091.58
2019-03-17T23:17:42.668Z,99081.27
2019-03-17T23:20:16.102Z,99092.13
2019-03-17T23:22:49.972Z,99095.82
2019-03-17T23:25:23.596Z,99107.78
2019-03-17T23:27:57.431Z,99098.73
2019-03-17T23:30:31.214Z,99110.27
2019-03-17T23:33:04.385Z,99108.55
2019-03-17T23:35:37.713Z,99110.55
2019-03-17T23:38:10.692Z,99106.07
2019-03-17T23:40:44.200Z,99109.66
2019-03-17T23:43:18.653Z,99109.22
2019-03-17T23:45:52.115Z,99111.92
2019-03-17T23:48:24.761Z,99106.77
2019-03-17T23:50:58.090Z,99113.14
2019-03-17T23:53:31.621Z,99099.36
2019-03-17T23:56:05.181Z,99108.95
2019-03-17T23:58:39.036Z,99111.42
